Tallassee, AL

2:14 PM CDT on September 03, 2015 (GMT -0500)
Franklyn Farm | | Change Station
CLOSE
Current Station
Personal Weather Station
Location: Tallassee, AL
Elevation: 435 ft
Nearby Weather Stations

Elev 435 ft 32.57 °N, 85.95 °W | Updated 13 minutes ago

Partly Cloudy
Partly Cloudy
94.8 °F
Feels Like 103 °F
N
1.7
Wind Variable Wind from WSW

Today
High -- | Low -- °F
--% Chance of Precip.
Yesterday
High -- | Low -- °F
Precip. -- in
6:19 AM 7:05 PM
Waning Gibbous, 67% visible
Pressure 29.98 in
Visibility 10.0 miles
Clouds Scattered Clouds 5500 ft
Heat Index 103 °F
Dew Point 71 °F
Humidity 47%
Rainfall 0.00 in
Snow Depth Not available.
UV 8 out of 12
Pollen 8.40 out of 12
Air Quality Not available.
Flu Activity Not available.
METAR KALX 031855Z AUTO 25004KT 10SM SCT055 34/22 A2998 RMK AO2 T03440216
Pressure 29.98 in
Visibility 10.0 miles
Clouds Scattered Clouds 5500 ft
Heat Index 103 °F
Dew Point 71 °F
Humidity 47%
Rainfall 0.00 in
Snow Depth Not available.
UV 8 out of 12
Pollen 8.40 out of 12
Air Quality Not available.
Flu Activity Not available.
METAR KALX 031855Z AUTO 25004KT 10SM SCT055 34/22 A2998 RMK AO2 T03440216

10-Day Weather Forecast

×

Almanac

Astronomy

Sep. 03, 2015 Rise Set
Actual Time
Civil Twilight
Nautical Twilight
Astronomical Twilight
Moon
Length of Visible Light
Length of Day
Tomorrow will be .
, % of the Moon is Illuminated

Today's Extremes

State Highs State Lows

Community

WunderPhotos

Upload Photos

1,852,014 photos uploaded!

WunderBlogs® & News

Nearby

Air Quality

  Air Quality AQ Index Pollutant
Not available.

Snow Depth

Station Depth Elevation

Earthquake Activity

City Distance Mag. Time & Date
Minimum magnitude displayed is 2.5.

Coastal Water Temperatures

Place Temperature

Stations

Nearby Weather Stations

Station Location Temp. Windchill Dew Point Humidity Wind Precip. Elev Updated Type